Time;durP1;ratioP1;P1;durP2;ratioP2;P2;SDS_P1;SDS_P2;PMS_P1;PMS_P2;Temp;Humidity;BMP_temperature;BMP_pressure;BME280_temperature;BME280_humidity;BME280_pressure;Samples;Min_cycle;Max_cycle;Signal;HPM_P1;HPM_P2
2023/09/08 00:02:02;;;;;;;8.05;5.75;;;;;;;;;;5051712;28;20036;-60
2023/09/08 00:04:28;;;;;;;13.10;5.90;;;;;;;;;;5051747;28;20398;-59
2023/09/08 00:06:53;;;;;;;11.55;6.15;;;;;;;;;;5052358;28;20037;-59
2023/09/08 00:09:18;;;;;;;11.93;6.03;;;;;;;;;;5050629;28;20033;-59
2023/09/08 00:11:44;;;;;;;9.85;6.43;;;;;;;;;;5032615;28;20034;-59
2023/09/08 00:14:10;;;;;;;8.52;6.10;;;;;;;;;;5046048;28;20087;-60
2023/09/08 00:16:35;;;;;;;10.52;6.50;;;;;;;;;;5050331;28;20159;-58
2023/09/08 00:19:01;;;;;;;12.25;6.43;;;;;;;;;;5046547;28;20037;-59
2023/09/08 00:21:26;;;;;;;10.00;6.32;;;;;;;;;;5014283;28;20035;-60
2023/09/08 00:23:52;;;;;;;9.25;6.20;;;;;;;;;;5046941;28;20033;-60
2023/09/08 00:26:18;;;;;;;9.50;6.13;;;;;;;;;;5050194;28;20029;-60
2023/09/08 00:28:43;;;;;;;9.07;6.50;;;;;;;;;;5051550;28;20474;-58
2023/09/08 00:31:09;;;;;;;7.80;6.10;;;;;;;;;;5050458;28;20448;-58
2023/09/08 00:33:37;;;;;;;11.77;6.28;;;;;;;;;;5049355;28;20740;-58
2023/09/08 00:36:03;;;;;;;8.48;6.53;;;;;;;;;;5047846;28;20048;-62
2023/09/08 00:38:29;;;;;;;8.50;6.55;;;;;;;;;;5038375;28;20029;-60
2023/09/08 00:40:54;;;;;;;9.57;6.90;;;;;;;;;;5038846;28;20037;-58
2023/09/08 00:43:19;;;;;;;9.40;6.80;;;;;;;;;;5038782;28;20568;-59
2023/09/08 00:45:45;;;;;;;11.45;7.07;;;;;;;;;;5051194;28;20033;-58
2023/09/08 00:48:12;;;;;;;10.07;6.68;;;;;;;;;;5044126;28;20044;-59
2023/09/08 00:50:38;;;;;;;13.75;6.85;;;;;;;;;;5044103;28;20032;-59
2023/09/08 00:53:05;;;;;;;9.75;7.00;;;;;;;;;;5036977;28;20033;-59
2023/09/08 00:55:31;;;;;;;10.05;6.72;;;;;;;;;;5050242;28;20029;-59
2023/09/08 00:57:58;;;;;;;9.23;6.85;;;;;;;;;;5047373;28;20029;-59
2023/09/08 01:00:24;;;;;;;10.65;6.82;;;;;;;;;;5049643;28;20045;-59
2023/09/08 01:02:50;;;;;;;8.80;6.80;;;;;;;;;;5051976;28;20461;-59
2023/09/08 01:05:16;;;;;;;9.27;6.57;;;;;;;;;;5046136;28;20040;-60
2023/09/08 01:07:43;;;;;;;8.95;6.72;;;;;;;;;;5048979;28;20106;-58
2023/09/08 01:10:09;;;;;;;10.18;6.65;;;;;;;;;;5051448;28;20043;-59
2023/09/08 01:12:35;;;;;;;11.30;6.95;;;;;;;;;;5046908;28;20385;-59
2023/09/08 01:15:04;;;;;;;12.52;6.90;;;;;;;;;;5047372;28;20044;-59
2023/09/08 01:17:30;;;;;;;9.95;7.40;;;;;;;;;;5049667;28;20464;-59
2023/09/08 01:19:58;;;;;;;8.60;6.97;;;;;;;;;;5040892;28;20113;-59
2023/09/08 01:22:40;;;;;;;10.07;7.55;;;;;;;;;;5045123;28;20444;-59
2023/09/08 01:25:14;;;;;;;11.63;7.30;;;;;;;;;;5036750;28;20478;-59
2023/09/08 01:27:46;;;;;;;12.13;7.18;;;;;;;;;;5035035;28;20028;-59
2023/09/08 01:30:12;;;;;;;11.25;7.28;;;;;;;;;;5049762;28;20120;-59
2023/09/08 01:32:40;;;;;;;11.65;7.10;;;;;;;;;;5039482;28;20089;-59
2023/09/08 01:35:06;;;;;;;14.88;7.55;;;;;;;;;;5046023;28;20036;-59
2023/09/08 01:37:32;;;;;;;12.50;7.38;;;;;;;;;;5032846;28;20445;-59
2023/09/08 01:39:57;;;;;;;9.80;7.50;;;;;;;;;;5032140;28;20029;-59
2023/09/08 01:42:22;;;;;;;9.60;7.28;;;;;;;;;;5035553;28;20032;-58
2023/09/08 01:44:48;;;;;;;9.57;7.70;;;;;;;;;;5047743;28;20029;-59
2023/09/08 01:47:13;;;;;;;9.13;7.50;;;;;;;;;;5051293;28;20021;-59
2023/09/08 01:49:39;;;;;;;10.95;7.80;;;;;;;;;;5048597;28;20474;-59
2023/09/08 01:52:05;;;;;;;9.70;7.50;;;;;;;;;;5046020;28;20488;-60
2023/09/08 01:54:30;;;;;;;10.63;7.72;;;;;;;;;;5042101;28;20041;-59
2023/09/08 01:56:55;;;;;;;16.75;7.65;;;;;;;;;;5041591;28;20032;-59
2023/09/08 01:59:21;;;;;;;10.43;7.85;;;;;;;;;;5033882;28;20122;-59
2023/09/08 02:01:46;;;;;;;11.25;8.00;;;;;;;;;;5039115;28;20037;-59
2023/09/08 02:04:12;;;;;;;10.50;7.88;;;;;;;;;;5042918;28;20029;-59
2023/09/08 02:06:37;;;;;;;11.23;7.68;;;;;;;;;;5048359;28;20116;-59
2023/09/08 02:09:03;;;;;;;10.60;7.80;;;;;;;;;;5049383;28;20032;-59
2023/09/08 02:11:28;;;;;;;10.85;7.57;;;;;;;;;;5050365;28;20032;-59
2023/09/08 02:13:54;;;;;;;11.25;8.30;;;;;;;;;;5049360;28;20025;-59
2023/09/08 02:16:19;;;;;;;14.30;7.68;;;;;;;;;;5041383;28;20077;-60
2023/09/08 02:18:45;;;;;;;11.02;7.80;;;;;;;;;;5032549;28;20029;-59
2023/09/08 02:21:11;;;;;;;11.88;8.10;;;;;;;;;;5046644;28;20095;-59
2023/09/08 02:23:36;;;;;;;11.00;8.40;;;;;;;;;;5033601;28;20087;-57
2023/09/08 02:26:02;;;;;;;13.07;7.95;;;;;;;;;;5039666;28;20068;-59
2023/09/08 02:28:27;;;;;;;13.43;7.88;;;;;;;;;;5031104;28;20036;-58
2023/09/08 02:30:53;;;;;;;11.82;8.43;;;;;;;;;;5045931;28;20052;-59
2023/09/08 02:33:19;;;;;;;11.75;8.38;;;;;;;;;;5050152;28;20029;-59
2023/09/08 02:35:44;;;;;;;12.63;8.45;;;;;;;;;;5050586;28;20362;-58
2023/09/08 02:38:10;;;;;;;11.65;8.23;;;;;;;;;;5053843;28;20045;-58
2023/09/08 02:40:38;;;;;;;12.02;8.50;;;;;;;;;;5045968;28;20025;-58
2023/09/08 02:43:03;;;;;;;10.48;8.30;;;;;;;;;;5034270;28;20033;-58
2023/09/08 02:45:34;;;;;;;12.50;8.52;;;;;;;;;;5043893;28;20040;-57
2023/09/08 02:48:00;;;;;;;11.45;8.57;;;;;;;;;;5036728;28;20036;-59
2023/09/08 02:50:25;;;;;;;13.38;8.63;;;;;;;;;;5051192;28;20029;-56
2023/09/08 02:52:50;;;;;;;11.65;8.38;;;;;;;;;;5037941;28;20397;-59
2023/09/08 02:55:16;;;;;;;12.32;9.30;;;;;;;;;;5051758;28;20388;-59
2023/09/08 02:57:42;;;;;;;12.65;8.52;;;;;;;;;;5052504;28;20044;-59
2023/09/08 03:00:08;;;;;;;13.43;8.45;;;;;;;;;;5054389;28;20028;-60
2023/09/08 03:02:33;;;;;;;16.23;9.20;;;;;;;;;;5052893;28;20025;-59
2023/09/08 03:05:00;;;;;;;11.30;8.85;;;;;;;;;;5049236;28;20034;-59
2023/09/08 03:07:29;;;;;;;10.23;8.75;;;;;;;;;;5054197;28;20438;-59
2023/09/08 03:09:55;;;;;;;10.88;9.23;;;;;;;;;;5053812;28;20043;-59
2023/09/08 03:12:20;;;;;;;11.82;9.77;;;;;;;;;;5053975;28;20107;-57
2023/09/08 03:14:45;;;;;;;14.50;9.57;;;;;;;;;;5052994;28;20044;-59
2023/09/08 03:17:12;;;;;;;13.55;8.93;;;;;;;;;;5054233;28;20156;-58
2023/09/08 03:19:38;;;;;;;14.50;9.25;;;;;;;;;;5051683;28;20067;-59
2023/09/08 03:22:03;;;;;;;15.68;9.77;;;;;;;;;;5049864;28;20032;-59
2023/09/08 03:24:29;;;;;;;13.02;9.48;;;;;;;;;;5048700;28;20457;-58
2023/09/08 03:26:54;;;;;;;15.07;9.88;;;;;;;;;;5044249;28;20061;-58
2023/09/08 03:29:20;;;;;;;12.15;9.70;;;;;;;;;;5053818;28;20032;-59
2023/09/08 03:31:45;;;;;;;12.25;9.43;;;;;;;;;;5053032;28;20061;-58
2023/09/08 03:34:10;;;;;;;14.20;9.88;;;;;;;;;;5053403;28;20068;-58
2023/09/08 03:36:36;;;;;;;13.55;9.68;;;;;;;;;;5051160;28;20449;-59
2023/09/08 03:39:02;;;;;;;14.65;10.27;;;;;;;;;;5053562;28;20029;-59
2023/09/08 03:41:28;;;;;;;13.13;9.63;;;;;;;;;;5053569;28;20609;-59
2023/09/08 03:43:53;;;;;;;14.27;9.95;;;;;;;;;;5052652;28;20108;-58
2023/09/08 03:46:18;;;;;;;12.40;9.38;;;;;;;;;;5052607;28;20033;-59
2023/09/08 03:48:44;;;;;;;15.70;9.80;;;;;;;;;;5052282;28;20445;-58
2023/09/08 03:51:09;;;;;;;13.50;9.50;;;;;;;;;;5051290;28;20032;-57
2023/09/08 03:53:34;;;;;;;13.68;9.45;;;;;;;;;;5051035;28;20454;-58
2023/09/08 03:56:00;;;;;;;13.68;9.95;;;;;;;;;;5053466;28;20112;-58
2023/09/08 03:58:25;;;;;;;14.07;9.55;;;;;;;;;;5053201;28;20043;-59
2023/09/08 04:00:51;;;;;;;12.85;9.50;;;;;;;;;;5037026;28;20649;-59
2023/09/08 04:03:16;;;;;;;13.25;10.07;;;;;;;;;;5038026;28;20036;-60
2023/09/08 04:05:41;;;;;;;13.90;10.15;;;;;;;;;;5053033;28;20025;-59
2023/09/08 04:08:07;;;;;;;13.63;9.30;;;;;;;;;;5053798;28;20037;-59
2023/09/08 04:10:33;;;;;;;15.98;9.80;;;;;;;;;;5052765;28;20350;-58
2023/09/08 04:12:58;;;;;;;13.02;9.77;;;;;;;;;;5051417;28;20052;-59
2023/09/08 04:15:23;;;;;;;12.98;10.15;;;;;;;;;;5052621;28;20056;-57
2023/09/08 04:17:49;;;;;;;14.40;10.70;;;;;;;;;;5047950;28;20053;-58
2023/09/08 04:20:15;;;;;;;13.93;9.93;;;;;;;;;;5033571;28;20112;-59
2023/09/08 04:22:40;;;;;;;16.73;9.98;;;;;;;;;;5030953;28;20124;-60
2023/09/08 04:25:06;;;;;;;16.52;10.13;;;;;;;;;;5047177;28;20040;-58
2023/09/08 04:27:32;;;;;;;14.65;10.50;;;;;;;;;;5052624;28;20040;-58
2023/09/08 04:29:59;;;;;;;16.65;10.38;;;;;;;;;;5051177;28;20040;-59
2023/09/08 04:32:27;;;;;;;12.23;9.93;;;;;;;;;;5052812;28;20086;-59
2023/09/08 04:34:52;;;;;;;16.33;9.98;;;;;;;;;;5051743;28;20075;-59
2023/09/08 04:37:18;;;;;;;13.73;10.02;;;;;;;;;;5033891;28;20025;-59
2023/09/08 04:39:44;;;;;;;16.52;10.15;;;;;;;;;;5050530;28;20087;-59
2023/09/08 04:42:09;;;;;;;15.05;10.13;;;;;;;;;;5051420;28;20111;-60
2023/09/08 04:44:34;;;;;;;16.77;10.98;;;;;;;;;;5050027;28;20029;-58
2023/09/08 04:47:00;;;;;;;12.63;9.57;;;;;;;;;;5031526;28;20041;-59
2023/09/08 04:49:26;;;;;;;15.45;10.38;;;;;;;;;;5032314;28;20386;-59
2023/09/08 04:51:51;;;;;;;16.85;10.32;;;;;;;;;;5051551;28;20840;-59
2023/09/08 04:54:16;;;;;;;14.88;10.30;;;;;;;;;;5052278;28;20466;-60
2023/09/08 04:56:42;;;;;;;14.77;10.80;;;;;;;;;;5051543;28;20485;-59
2023/09/08 04:59:07;;;;;;;14.55;11.00;;;;;;;;;;5051004;28;20028;-59
2023/09/08 05:01:33;;;;;;;15.40;11.25;;;;;;;;;;5050719;28;20032;-55
2023/09/08 05:04:00;;;;;;;16.90;11.13;;;;;;;;;;5051566;28;20478;-57
2023/09/08 05:06:25;;;;;;;16.00;10.45;;;;;;;;;;5052266;28;20104;-59
2023/09/08 05:08:51;;;;;;;17.35;10.75;;;;;;;;;;5044400;28;20155;-59
2023/09/08 05:11:17;;;;;;;13.95;10.73;;;;;;;;;;5033200;28;20109;-59
2023/09/08 05:13:42;;;;;;;15.02;10.52;;;;;;;;;;5051250;28;20485;-59
2023/09/08 05:16:11;;;;;;;14.38;10.70;;;;;;;;;;5038368;28;20045;-59
2023/09/08 05:18:40;;;;;;;15.63;10.63;;;;;;;;;;5043346;28;20389;-58
2023/09/08 05:21:06;;;;;;;14.70;10.40;;;;;;;;;;5041102;28;20056;-62
2023/09/08 05:23:32;;;;;;;14.35;10.60;;;;;;;;;;5045446;28;20047;-62
2023/09/08 05:26:00;;;;;;;13.70;9.95;;;;;;;;;;5045725;28;20029;-63
2023/09/08 05:28:26;;;;;;;16.17;10.10;;;;;;;;;;5049080;28;20056;-62
2023/09/08 05:30:52;;;;;;;14.15;9.73;;;;;;;;;;5046999;28;20064;-62
2023/09/08 05:33:17;;;;;;;16.45;10.43;;;;;;;;;;5047381;28;20040;-61
2023/09/08 05:35:45;;;;;;;14.43;10.10;;;;;;;;;;5047222;28;20037;-59
2023/09/08 05:38:14;;;;;;;13.00;9.63;;;;;;;;;;5041665;28;20111;-60
2023/09/08 05:40:39;;;;;;;13.52;9.93;;;;;;;;;;5049676;28;20033;-62
2023/09/08 05:43:05;;;;;;;13.88;9.85;;;;;;;;;;5049223;28;20086;-61
2023/09/08 05:45:34;;;;;;;14.63;9.65;;;;;;;;;;5046534;28;20049;-60
2023/09/08 05:48:00;;;;;;;15.50;9.70;;;;;;;;;;5049891;28;20036;-59
2023/09/08 05:50:25;;;;;;;15.27;9.73;;;;;;;;;;5050904;28;20048;-60
2023/09/08 05:52:51;;;;;;;14.57;9.32;;;;;;;;;;5047348;28;20098;-60
2023/09/08 05:55:17;;;;;;;18.17;9.50;;;;;;;;;;5051302;28;20509;-59
2023/09/08 05:57:42;;;;;;;16.50;9.32;;;;;;;;;;5048477;28;20064;-59
2023/09/08 06:00:08;;;;;;;13.98;9.07;;;;;;;;;;5046234;28;20048;-61
2023/09/08 06:02:34;;;;;;;12.63;8.70;;;;;;;;;;5050297;28;20033;-58
2023/09/08 06:04:59;;;;;;;13.20;9.10;;;;;;;;;;5048662;28;20051;-61
2023/09/08 06:07:24;;;;;;;15.90;8.95;;;;;;;;;;5048705;28;20055;-60
2023/09/08 06:09:50;;;;;;;14.55;8.63;;;;;;;;;;5048398;28;20025;-62
2023/09/08 06:12:15;;;;;;;12.15;8.32;;;;;;;;;;5054353;28;20035;-61
2023/09/08 06:14:41;;;;;;;13.38;8.05;;;;;;;;;;5042924;28;20059;-60
2023/09/08 06:17:06;;;;;;;11.88;8.27;;;;;;;;;;5046496;28;20077;-60
2023/09/08 06:19:31;;;;;;;12.70;8.32;;;;;;;;;;5050522;28;20116;-60
2023/09/08 06:21:58;;;;;;;11.52;8.35;;;;;;;;;;5050820;28;20049;-60
2023/09/08 06:24:24;;;;;;;12.23;8.25;;;;;;;;;;5050276;28;20025;-60
2023/09/08 06:26:49;;;;;;;13.10;7.88;;;;;;;;;;5051593;28;20457;-59
2023/09/08 06:29:15;;;;;;;10.48;7.72;;;;;;;;;;5049821;28;20457;-61
2023/09/08 06:31:40;;;;;;;10.48;8.15;;;;;;;;;;5050975;28;20033;-61
2023/09/08 06:34:05;;;;;;;12.93;7.90;;;;;;;;;;5054143;28;20047;-59
2023/09/08 06:36:31;;;;;;;10.98;7.95;;;;;;;;;;5052803;28;20086;-60
2023/09/08 06:38:56;;;;;;;11.75;7.25;;;;;;;;;;5052550;28;20059;-61
2023/09/08 06:41:23;;;;;;;10.95;7.10;;;;;;;;;;5052238;28;20064;-60
2023/09/08 06:43:49;;;;;;;10.23;7.45;;;;;;;;;;5046295;28;20133;-61
2023/09/08 06:46:15;;;;;;;18.48;8.07;;;;;;;;;;5051631;28;20453;-61
2023/09/08 06:48:40;;;;;;;16.08;7.70;;;;;;;;;;5045445;28;20462;-61
2023/09/08 06:51:05;;;;;;;10.93;7.25;;;;;;;;;;5053529;28;20389;-60
2023/09/08 06:53:31;;;;;;;11.88;7.30;;;;;;;;;;5049727;28;20124;-59
2023/09/08 06:55:56;;;;;;;12.98;7.32;;;;;;;;;;5052717;28;20748;-61
2023/09/08 06:58:22;;;;;;;13.60;7.03;;;;;;;;;;5052488;28;20134;-61
2023/09/08 07:00:49;;;;;;;9.02;6.40;;;;;;;;;;5052248;28;20033;-61
2023/09/08 07:03:14;;;;;;;12.52;6.45;;;;;;;;;;5053357;28;20033;-59
2023/09/08 07:05:40;;;;;;;9.18;6.40;;;;;;;;;;5051182;28;20074;-59
2023/09/08 07:08:06;;;;;;;13.30;6.85;;;;;;;;;;5051319;28;20060;-60
2023/09/08 07:10:32;;;;;;;9.85;6.78;;;;;;;;;;5049239;28;20366;-58
2023/09/08 07:12:57;;;;;;;11.88;6.85;;;;;;;;;;5046285;28;20025;-61
2023/09/08 07:15:23;;;;;;;9.70;6.38;;;;;;;;;;5051115;28;20173;-62
2023/09/08 07:17:48;;;;;;;9.10;6.50;;;;;;;;;;5051615;28;20041;-60
2023/09/08 07:20:13;;;;;;;10.75;6.80;;;;;;;;;;5051931;28;20029;-59
2023/09/08 07:22:39;;;;;;;11.52;6.80;;;;;;;;;;5051557;28;20033;-59
2023/09/08 07:25:05;;;;;;;9.35;6.40;;;;;;;;;;5052443;28;20129;-59
2023/09/08 07:27:31;;;;;;;10.95;6.57;;;;;;;;;;5047950;28;20030;-59
2023/09/08 07:29:56;;;;;;;8.88;6.35;;;;;;;;;;5033100;28;20037;-59
2023/09/08 07:32:23;;;;;;;8.10;5.80;;;;;;;;;;5061810;28;20028;-59
2023/09/08 07:34:54;;;;;;;8.57;5.95;;;;;;;;;;5064705;28;20434;-59
2023/09/08 07:37:23;;;;;;;9.02;6.15;;;;;;;;;;5033109;28;20109;-59
2023/09/08 07:39:49;;;;;;;11.25;6.20;;;;;;;;;;5032418;28;20429;-60
2023/09/08 07:42:15;;;;;;;9.02;6.40;;;;;;;;;;5045853;28;20052;-59
2023/09/08 07:44:41;;;;;;;10.30;6.45;;;;;;;;;;5043382;28;20465;-57
2023/09/08 07:47:06;;;;;;;12.05;6.40;;;;;;;;;;5037385;28;20407;-59
2023/09/08 07:49:34;;;;;;;13.40;6.63;;;;;;;;;;5033233;28;20040;-59
2023/09/08 07:51:59;;;;;;;10.73;6.53;;;;;;;;;;5038961;28;20056;-59
2023/09/08 07:54:25;;;;;;;11.02;6.32;;;;;;;;;;5031904;28;20108;-60
2023/09/08 07:56:50;;;;;;;11.88;6.15;;;;;;;;;;5046146;28;20044;-60
2023/09/08 07:59:16;;;;;;;9.80;5.80;;;;;;;;;;5052113;28;20094;-60
2023/09/08 08:01:41;;;;;;;11.05;6.28;;;;;;;;;;5051369;28;20032;-58
2023/09/08 08:04:06;;;;;;;10.32;6.50;;;;;;;;;;5051390;28;20478;-59
2023/09/08 08:06:32;;;;;;;11.23;6.70;;;;;;;;;;5051024;28;20032;-60
2023/09/08 08:08:57;;;;;;;10.80;6.20;;;;;;;;;;5050198;28;20113;-58
2023/09/08 08:11:25;;;;;;;10.63;6.00;;;;;;;;;;5048162;28;20033;-60
2023/09/08 08:13:51;;;;;;;12.60;5.80;;;;;;;;;;5032071;28;20473;-59
2023/09/08 08:16:16;;;;;;;11.95;5.90;;;;;;;;;;5040233;28;20079;-59
2023/09/08 08:18:44;;;;;;;9.57;5.65;;;;;;;;;;5049537;28;20385;-59
2023/09/08 08:21:09;;;;;;;11.13;5.75;;;;;;;;;;5051910;28;20056;-59
2023/09/08 08:23:36;;;;;;;11.75;5.68;;;;;;;;;;5052140;28;20504;-60
2023/09/08 08:26:01;;;;;;;9.85;5.78;;;;;;;;;;5050267;28;20033;-59
2023/09/08 08:28:27;;;;;;;10.70;6.10;;;;;;;;;;5050475;28;20149;-58
2023/09/08 08:30:52;;;;;;;10.88;5.22;;;;;;;;;;5035357;28;20037;-59
2023/09/08 08:33:19;;;;;;;11.60;5.57;;;;;;;;;;5052840;28;20033;-60
2023/09/08 08:35:50;;;;;;;8.00;5.50;;;;;;;;;;5050196;28;20025;-60
2023/09/08 08:38:15;;;;;;;11.00;5.88;;;;;;;;;;5050198;28;20033;-60
2023/09/08 08:40:41;;;;;;;8.68;5.38;;;;;;;;;;5041005;28;20610;-59
2023/09/08 08:43:07;;;;;;;10.77;5.82;;;;;;;;;;5052031;28;20122;-60
2023/09/08 08:45:35;;;;;;;9.65;5.28;;;;;;;;;;5050868;28;20037;-60
2023/09/08 08:48:03;;;;;;;8.65;5.28;;;;;;;;;;5047916;28;20034;-61
2023/09/08 08:50:30;;;;;;;10.00;5.50;;;;;;;;;;5051434;28;20033;-60
2023/09/08 08:52:56;;;;;;;9.48;5.32;;;;;;;;;;5049304;28;20377;-59
2023/09/08 08:55:23;;;;;;;9.82;5.65;;;;;;;;;;5052162;28;20469;-60
2023/09/08 08:57:50;;;;;;;8.55;5.15;;;;;;;;;;5051178;28;20039;-60
2023/09/08 09:00:18;;;;;;;9.15;5.07;;;;;;;;;;5051816;28;20381;-60
2023/09/08 09:02:44;;;;;;;10.45;5.30;;;;;;;;;;5051469;28;20043;-59
2023/09/08 09:05:14;;;;;;;10.98;5.00;;;;;;;;;;5051635;28;20035;-59
2023/09/08 09:07:41;;;;;;;7.90;4.97;;;;;;;;;;5050426;28;20119;-59
2023/09/08 09:10:08;;;;;;;6.22;4.70;;;;;;;;;;5049340;28;20532;-60
2023/09/08 09:12:35;;;;;;;8.68;4.75;;;;;;;;;;5051612;28;20033;-60
2023/09/08 09:15:04;;;;;;;8.70;5.45;;;;;;;;;;5050788;28;20532;-60
2023/09/08 09:17:33;;;;;;;7.90;4.90;;;;;;;;;;5049944;28;20076;-60
2023/09/08 09:20:15;;;;;;;7.35;4.80;;;;;;;;;;5050729;28;20033;-60
2023/09/08 09:22:40;;;;;;;8.77;4.88;;;;;;;;;;5046976;28;20025;-60
2023/09/08 09:25:07;;;;;;;8.98;4.80;;;;;;;;;;5050702;28;20465;-60
2023/09/08 09:27:38;;;;;;;5.60;4.43;;;;;;;;;;5050727;28;20045;-60
2023/09/08 09:30:04;;;;;;;8.27;5.00;;;;;;;;;;5050615;28;20032;-61
2023/09/08 09:32:31;;;;;;;8.63;4.63;;;;;;;;;;5045189;28;20032;-60
2023/09/08 09:34:57;;;;;;;6.97;4.70;;;;;;;;;;5049478;28;20082;-59
2023/09/08 09:37:23;;;;;;;10.57;4.72;;;;;;;;;;5036935;28;20033;-60
2023/09/08 09:39:50;;;;;;;8.38;4.70;;;;;;;;;;5030352;28;20029;-60
2023/09/08 09:42:16;;;;;;;8.23;5.07;;;;;;;;;;5043141;28;20044;-60
2023/09/08 09:44:42;;;;;;;6.07;4.65;;;;;;;;;;5038203;28;20500;-61
2023/09/08 09:47:09;;;;;;;10.32;5.10;;;;;;;;;;5040084;28;20167;-60
2023/09/08 09:49:42;;;;;;;7.53;4.70;;;;;;;;;;5050547;28;20470;-60
2023/09/08 09:52:07;;;;;;;9.25;4.70;;;;;;;;;;5050412;28;20044;-60
2023/09/08 09:54:33;;;;;;;9.30;4.63;;;;;;;;;;5046454;28;20044;-59
2023/09/08 09:56:59;;;;;;;8.13;4.32;;;;;;;;;;5039692;28;20043;-61
2023/09/08 09:59:25;;;;;;;6.40;4.60;;;;;;;;;;5043845;28;20038;-61
2023/09/08 10:01:51;;;;;;;7.35;4.47;;;;;;;;;;5038209;28;20033;-59
2023/09/08 10:04:17;;;;;;;6.82;4.78;;;;;;;;;;5049956;28;20040;-61
2023/09/08 10:06:43;;;;;;;7.47;4.45;;;;;;;;;;5050838;28;20112;-59
2023/09/08 10:09:13;;;;;;;7.75;4.88;;;;;;;;;;5048993;28;20118;-57
2023/09/08 10:11:44;;;;;;;7.93;4.70;;;;;;;;;;5051032;28;20056;-55
2023/09/08 10:14:11;;;;;;;8.65;4.50;;;;;;;;;;5050165;28;20037;-57
2023/09/08 10:16:39;;;;;;;9.48;4.88;;;;;;;;;;5048794;28;20049;-58
2023/09/08 10:19:08;;;;;;;8.00;4.57;;;;;;;;;;5032174;28;20033;-59
2023/09/08 10:21:38;;;;;;;6.27;4.50;;;;;;;;;;5035485;28;20079;-62
2023/09/08 10:24:13;;;;;;;6.82;4.80;;;;;;;;;;5038813;28;20026;-59
2023/09/08 10:26:42;;;;;;;11.32;4.53;;;;;;;;;;5035716;28;20033;-60
2023/09/08 10:29:09;;;;;;;9.37;4.73;;;;;;;;;;5048863;28;20087;-58
2023/09/08 10:31:36;;;;;;;7.65;4.60;;;;;;;;;;5049043;28;20258;-61
2023/09/08 10:34:02;;;;;;;9.48;4.75;;;;;;;;;;5050295;28;20033;-58
2023/09/08 10:36:28;;;;;;;6.20;4.60;;;;;;;;;;5050706;28;20056;-59
2023/09/08 10:38:56;;;;;;;9.93;4.95;;;;;;;;;;5037747;28;20025;-60
2023/09/08 10:41:21;;;;;;;8.35;4.88;;;;;;;;;;5032660;28;20030;-59
2023/09/08 10:43:56;;;;;;;7.40;4.72;;;;;;;;;;5050179;28;20040;-58
2023/09/08 10:46:23;;;;;;;9.23;4.97;;;;;;;;;;5049803;28;20048;-59
2023/09/08 10:49:10;;;;;;;6.20;4.20;;;;;;;;;;5049584;28;20025;-59
2023/09/08 10:51:35;;;;;;;5.90;4.30;;;;;;;;;;5049468;28;20461;-59
2023/09/08 10:54:01;;;;;;;7.38;4.20;;;;;;;;;;5049913;28;20136;-61
2023/09/08 10:56:53;;;;;;;6.55;4.10;;;;;;;;;;5050404;28;20037;-60
2023/09/08 10:59:18;;;;;;;6.57;4.15;;;;;;;;;;5053045;28;20033;-60
2023/09/08 11:01:46;;;;;;;6.57;4.30;;;;;;;;;;5053777;28;20029;-61
2023/09/08 11:04:13;;;;;;;7.35;4.35;;;;;;;;;;5031528;28;20040;-60
2023/09/08 11:06:38;;;;;;;8.10;4.38;;;;;;;;;;5036630;28;20037;-60
2023/09/08 11:09:08;;;;;;;5.63;4.35;;;;;;;;;;5045939;28;20227;-60
2023/09/08 11:11:34;;;;;;;7.60;4.40;;;;;;;;;;5040280;28;20029;-60
2023/09/08 11:13:59;;;;;;;6.57;4.35;;;;;;;;;;5053166;28;20037;-60
2023/09/08 11:16:29;;;;;;;5.60;4.63;;;;;;;;;;5051188;28;20118;-60
2023/09/08 11:18:54;;;;;;;6.88;4.30;;;;;;;;;;5042822;28;20061;-60
2023/09/08 11:21:20;;;;;;;5.85;4.22;;;;;;;;;;5043090;28;20764;-60
2023/09/08 11:23:46;;;;;;;8.35;4.88;;;;;;;;;;5048364;28;20081;-60
2023/09/08 11:26:12;;;;;;;9.80;5.10;;;;;;;;;;5038668;28;20033;-60
2023/09/08 11:28:38;;;;;;;8.15;4.97;;;;;;;;;;5050227;28;20440;-60
2023/09/08 11:31:03;;;;;;;5.32;4.60;;;;;;;;;;5052439;28;20036;-59
2023/09/08 11:33:34;;;;;;;6.15;5.05;;;;;;;;;;5051758;28;20828;-59
2023/09/08 11:35:59;;;;;;;6.35;4.75;;;;;;;;;;5052611;28;20061;-59
2023/09/08 11:38:28;;;;;;;5.85;5.25;;;;;;;;;;5052716;28;20059;-59
2023/09/08 11:40:57;;;;;;;6.50;5.30;;;;;;;;;;5050344;28;20107;-59
2023/09/08 11:43:22;;;;;;;5.80;5.20;;;;;;;;;;5052201;28;20495;-59
2023/09/08 11:45:48;;;;;;;7.28;5.40;;;;;;;;;;5051276;28;20111;-60
2023/09/08 11:48:15;;;;;;;7.30;5.25;;;;;;;;;;5051079;28;20481;-60
2023/09/08 11:50:46;;;;;;;6.80;5.72;;;;;;;;;;5051403;28;20048;-59
2023/09/08 11:53:11;;;;;;;6.38;5.65;;;;;;;;;;5052786;28;20082;-60
2023/09/08 11:55:37;;;;;;;7.63;5.70;;;;;;;;;;5047003;28;20025;-60
2023/09/08 11:58:06;;;;;;;6.68;5.80;;;;;;;;;;5043837;28;20092;-58
2023/09/08 12:00:32;;;;;;;6.70;5.95;;;;;;;;;;5041365;28;20068;-60
2023/09/08 12:03:12;;;;;;;6.78;5.88;;;;;;;;;;5041493;28;20053;-59
2023/09/08 12:05:39;;;;;;;8.15;6.00;;;;;;;;;;5052581;28;20112;-61
2023/09/08 12:08:05;;;;;;;7.85;6.28;;;;;;;;;;5044369;28;20029;-60
2023/09/08 12:10:38;;;;;;;7.95;6.05;;;;;;;;;;5030260;28;20071;-61
2023/09/08 12:13:03;;;;;;;6.88;6.00;;;;;;;;;;5052138;28;20049;-60
2023/09/08 12:15:33;;;;;;;6.85;6.15;;;;;;;;;;5048704;28;20098;-60
2023/09/08 12:18:07;;;;;;;7.82;6.20;;;;;;;;;;5046311;28;20115;-59
2023/09/08 12:20:33;;;;;;;7.20;6.10;;;;;;;;;;5052989;28;20072;-60
2023/09/08 12:23:03;;;;;;;8.40;6.30;;;;;;;;;;5052281;28;20064;-60
2023/09/08 12:25:31;;;;;;;8.60;6.20;;;;;;;;;;5049458;28;20094;-61
2023/09/08 12:27:57;;;;;;;7.15;6.45;;;;;;;;;;5051075;28;20029;-61
2023/09/08 12:30:32;;;;;;;8.52;6.30;;;;;;;;;;5052515;28;20063;-61
2023/09/08 12:32:59;;;;;;;7.47;6.10;;;;;;;;;;5051517;28;20526;-61
2023/09/08 12:35:25;;;;;;;7.25;6.10;;;;;;;;;;5050898;28;20033;-62
2023/09/08 12:37:58;;;;;;;7.53;6.60;;;;;;;;;;5051205;28;20033;-61
2023/09/08 12:40:27;;;;;;;7.15;6.43;;;;;;;;;;5050078;28;20043;-61
2023/09/08 12:42:52;;;;;;;7.00;6.10;;;;;;;;;;5051438;28;20465;-61
2023/09/08 12:45:19;;;;;;;7.30;6.60;;;;;;;;;;5034374;28;20092;-62
2023/09/08 12:47:45;;;;;;;8.15;6.40;;;;;;;;;;5038189;28;20029;-61
2023/09/08 12:50:10;;;;;;;10.35;6.60;;;;;;;;;;5050920;28;20046;-61
2023/09/08 12:52:36;;;;;;;7.43;6.72;;;;;;;;;;5040992;28;20033;-61
2023/09/08 12:55:01;;;;;;;7.65;6.95;;;;;;;;;;5052100;28;20041;-61
2023/09/08 12:57:27;;;;;;;7.32;6.57;;;;;;;;;;5052011;28;20025;-61
2023/09/08 12:59:52;;;;;;;7.38;6.57;;;;;;;;;;5043705;28;20119;-61
2023/09/08 13:02:17;;;;;;;7.70;7.00;;;;;;;;;;5033818;28;20377;-59
2023/09/08 13:04:48;;;;;;;8.60;7.50;;;;;;;;;;5050802;28;20032;-62
2023/09/08 13:07:14;;;;;;;7.85;7.03;;;;;;;;;;5049919;28;20025;-62
2023/09/08 13:09:43;;;;;;;7.95;7.03;;;;;;;;;;5051440;28;20112;-60
2023/09/08 13:12:10;;;;;;;8.52;6.95;;;;;;;;;;5051559;28;20042;-60
2023/09/08 13:14:35;;;;;;;7.95;7.15;;;;;;;;;;5044777;28;20037;-61
2023/09/08 13:17:01;;;;;;;7.80;7.05;;;;;;;;;;5031292;28;20049;-61
2023/09/08 13:19:27;;;;;;;7.53;6.82;;;;;;;;;;5049455;28;20036;-64
2023/09/08 13:21:52;;;;;;;8.15;7.30;;;;;;;;;;5049926;28;20033;-61
2023/09/08 13:24:19;;;;;;;10.30;7.30;;;;;;;;;;5050441;28;20040;-61
2023/09/08 13:26:45;;;;;;;9.80;7.00;;;;;;;;;;5030983;28;20079;-61
2023/09/08 13:29:10;;;;;;;8.55;6.90;;;;;;;;;;5046247;28;20504;-61
2023/09/08 13:31:35;;;;;;;7.70;7.00;;;;;;;;;;5051363;28;20035;-60
2023/09/08 13:34:01;;;;;;;7.45;6.70;;;;;;;;;;5050805;28;20099;-60
2023/09/08 13:36:26;;;;;;;10.60;6.90;;;;;;;;;;5050318;28;20044;-61
2023/09/08 13:38:52;;;;;;;7.55;6.82;;;;;;;;;;5050092;28;20043;-61
2023/09/08 13:41:17;;;;;;;7.45;6.75;;;;;;;;;;5047075;28;20366;-61
2023/09/08 13:43:43;;;;;;;7.38;6.68;;;;;;;;;;5042438;28;20466;-64
2023/09/08 13:46:08;;;;;;;7.70;7.00;;;;;;;;;;5049403;28;20375;-60
2023/09/08 13:48:34;;;;;;;7.68;6.82;;;;;;;;;;5043495;28;20064;-61
2023/09/08 13:51:03;;;;;;;8.02;6.97;;;;;;;;;;5047165;28;20040;-61
2023/09/08 13:53:30;;;;;;;7.85;7.05;;;;;;;;;;5029850;28;20034;-61
2023/09/08 13:55:56;;;;;;;7.90;7.20;;;;;;;;;;5036577;28;20042;-61
2023/09/08 13:58:22;;;;;;;7.65;6.95;;;;;;;;;;5051063;28;20090;-61
2023/09/08 14:00:48;;;;;;;7.70;7.00;;;;;;;;;;5046944;28;20159;-60
2023/09/08 14:03:14;;;;;;;9.25;7.38;;;;;;;;;;5036135;28;20493;-61
2023/09/08 14:05:40;;;;;;;8.35;7.35;;;;;;;;;;5031194;28;20060;-63
2023/09/08 14:08:06;;;;;;;7.95;7.25;;;;;;;;;;5045291;28;20382;-61
2023/09/08 14:10:31;;;;;;;8.20;7.30;;;;;;;;;;5049796;28;20040;-64
2023/09/08 14:12:57;;;;;;;8.02;7.30;;;;;;;;;;5050631;28;20033;-61
2023/09/08 14:15:22;;;;;;;8.13;7.32;;;;;;;;;;5049684;28;20080;-61
2023/09/08 14:17:48;;;;;;;7.80;7.10;;;;;;;;;;5050998;28;20033;-61
2023/09/08 14:20:15;;;;;;;7.88;7.10;;;;;;;;;;5049829;28;20033;-62
2023/09/08 14:22:41;;;;;;;8.23;7.43;;;;;;;;;;5051255;28;20301;-62
2023/09/08 14:25:07;;;;;;;9.30;7.43;;;;;;;;;;5049235;28;20636;-61
2023/09/08 14:27:34;;;;;;;7.68;6.97;;;;;;;;;;5051262;28;20117;-62
2023/09/08 14:29:59;;;;;;;7.97;7.18;;;;;;;;;;5050345;28;20033;-61
2023/09/08 14:32:25;;;;;;;7.97;7.18;;;;;;;;;;5051896;28;20082;-61